createdAt,value
2023-02-15T00:01:42.342Z,9.95
2023-02-15T00:04:10.280Z,9.67
2023-02-15T00:06:36.978Z,10.65
2023-02-15T00:09:03.921Z,9.88
2023-02-15T00:12:06.442Z,10.75
2023-02-15T00:14:33.033Z,9.60
2023-02-15T00:17:00.868Z,9.37
2023-02-15T00:19:27.495Z,9.20
2023-02-15T00:21:53.987Z,10.20
2023-02-15T00:24:20.742Z,8.93
2023-02-15T00:26:48.293Z,9.30
2023-02-15T00:29:16.506Z,8.83
2023-02-15T00:31:43.306Z,8.63
2023-02-15T00:34:21.992Z,9.45
2023-02-15T00:36:48.585Z,9.88
2023-02-15T00:39:16.564Z,10.93
2023-02-15T00:41:43.497Z,10.70
2023-02-15T00:44:10.572Z,9.93
2023-02-15T00:46:37.095Z,10.50
2023-02-15T00:49:04.238Z,11.23
2023-02-15T00:51:31.226Z,10.15
2023-02-15T00:53:57.729Z,9.63
2023-02-15T00:56:24.625Z,10.70
2023-02-15T00:58:51.153Z,11.27
2023-02-15T01:01:20.604Z,12.02
2023-02-15T01:03:47.790Z,12.10
2023-02-15T01:06:15.865Z,12.10
2023-02-15T01:08:42.663Z,12.57
2023-02-15T01:11:11.984Z,13.05
2023-02-15T01:13:39.128Z,12.82
2023-02-15T01:16:05.896Z,12.23
2023-02-15T01:18:33.389Z,12.67
2023-02-15T01:20:59.972Z,12.40
2023-02-15T01:23:26.517Z,12.13
2023-02-15T01:25:52.991Z,12.75
2023-02-15T01:28:19.493Z,12.35
2023-02-15T01:30:46.050Z,12.20
2023-02-15T01:33:18.762Z,12.50
2023-02-15T01:35:47.226Z,11.93
2023-02-15T01:38:16.030Z,12.13
2023-02-15T01:40:42.776Z,12.80
2023-02-15T01:43:13.182Z,12.37
2023-02-15T01:45:40.300Z,12.10
2023-02-15T01:48:17.571Z,11.35
2023-02-15T01:50:47.654Z,12.27
2023-02-15T01:53:17.222Z,12.63
2023-02-15T01:55:51.350Z,11.90
2023-02-15T01:58:18.310Z,11.65
2023-02-15T02:00:45.542Z,11.45
2023-02-15T02:03:13.074Z,12.27
2023-02-15T02:05:41.872Z,11.15
2023-02-15T02:08:10.875Z,11.70
2023-02-15T02:10:37.606Z,11.48
2023-02-15T02:13:07.364Z,13.27
2023-02-15T02:16:13.299Z,13.18
2023-02-15T02:18:53.370Z,14.98
2023-02-15T02:21:28.756Z,14.83
2023-02-15T02:24:13.540Z,14.23
2023-02-15T02:26:49.089Z,13.55
2023-02-15T02:29:24.652Z,13.35
2023-02-15T02:32:12.988Z,12.27
2023-02-15T02:35:09.928Z,11.53
2023-02-15T02:37:58.238Z,10.25
2023-02-15T02:40:35.887Z,10.10
2023-02-15T02:43:11.508Z,11.63
2023-02-15T02:45:53.887Z,11.65
2023-02-15T02:48:25.267Z,11.07
2023-02-15T02:50:51.710Z,11.00
2023-02-15T02:53:18.609Z,11.35
2023-02-15T02:55:49.591Z,10.52
2023-02-15T02:58:22.003Z,10.27
2023-02-15T03:00:58.597Z,10.43
2023-02-15T03:03:35.419Z,11.15
2023-02-15T03:06:07.164Z,9.77
2023-02-15T03:08:39.165Z,10.80
2023-02-15T03:11:06.188Z,9.97
2023-02-15T03:13:33.763Z,10.40
2023-02-15T03:16:21.695Z,10.00
2023-02-15T03:18:58.141Z,10.27
2023-02-15T03:21:41.462Z,9.77
2023-02-15T03:24:15.394Z,9.93
2023-02-15T03:26:46.594Z,10.10
2023-02-15T03:29:14.811Z,10.10
2023-02-15T03:31:45.365Z,10.95
2023-02-15T03:34:14.737Z,10.20
2023-02-15T03:37:00.754Z,10.67
2023-02-15T03:39:38.761Z,10.43
2023-02-15T03:42:09.281Z,11.65
2023-02-15T03:44:47.852Z,10.73
2023-02-15T03:47:18.840Z,10.02
2023-02-15T03:49:57.121Z,9.40
2023-02-15T03:52:27.096Z,10.45
2023-02-15T03:54:53.852Z,10.05
2023-02-15T03:57:47.603Z,9.88
2023-02-15T04:00:39.443Z,9.40
2023-02-15T04:03:05.887Z,9.67
2023-02-15T04:05:32.423Z,9.90
2023-02-15T04:07:58.882Z,9.48
2023-02-15T04:10:43.790Z,9.52
2023-02-15T04:13:10.260Z,9.85
2023-02-15T04:15:55.448Z,9.20
2023-02-15T04:18:21.912Z,9.07
2023-02-15T04:21:06.988Z,9.35
2023-02-15T04:23:51.989Z,9.38
2023-02-15T04:26:18.520Z,8.55
2023-02-15T04:28:44.980Z,8.67
2023-02-15T04:31:11.596Z,9.70
2023-02-15T04:33:38.113Z,9.93
2023-02-15T04:36:06.789Z,9.27
2023-02-15T04:38:33.240Z,9.30
2023-02-15T04:40:59.743Z,10.00
2023-02-15T04:43:26.261Z,9.00
2023-02-15T04:45:52.973Z,8.60
2023-02-15T04:48:19.624Z,9.55
2023-02-15T04:50:46.190Z,8.32
2023-02-15T04:53:13.137Z,9.43
2023-02-15T04:55:39.627Z,9.77
2023-02-15T04:58:06.250Z,9.27
2023-02-15T05:00:32.700Z,9.80
2023-02-15T05:02:59.320Z,8.98
2023-02-15T05:05:25.927Z,8.30
2023-02-15T05:07:52.495Z,9.02
2023-02-15T05:10:19.047Z,8.35
2023-02-15T05:12:45.476Z,8.55
2023-02-15T05:15:12.036Z,9.20
2023-02-15T05:17:38.559Z,8.07
2023-02-15T05:20:05.714Z,8.02
2023-02-15T05:22:32.226Z,9.00
2023-02-15T05:25:17.305Z,7.97
2023-02-15T05:28:04.426Z,8.32
2023-02-15T05:30:31.913Z,8.27
2023-02-15T05:32:58.590Z,8.50
2023-02-15T05:35:25.195Z,9.13
2023-02-15T05:37:51.733Z,9.18
2023-02-15T05:40:18.461Z,9.50
2023-02-15T05:42:44.975Z,9.60
2023-02-15T05:45:11.713Z,8.45
2023-02-15T05:47:38.256Z,8.90
2023-02-15T05:50:05.453Z,8.80
2023-02-15T05:52:31.903Z,9.18
2023-02-15T05:54:59.175Z,9.67
2023-02-15T05:57:25.623Z,8.90
2023-02-15T05:59:52.169Z,8.85
2023-02-15T06:02:19.080Z,9.30
2023-02-15T06:04:45.608Z,8.50
2023-02-15T06:07:13.236Z,9.17
2023-02-15T06:09:40.116Z,7.95
2023-02-15T06:12:06.791Z,8.57
2023-02-15T06:14:33.269Z,10.13
2023-02-15T06:16:59.731Z,9.90
2023-02-15T06:19:26.458Z,7.70
2023-02-15T06:21:53.037Z,9.10
2023-02-15T06:24:19.506Z,9.02
2023-02-15T06:26:46.019Z,8.70
2023-02-15T06:29:12.556Z,8.98
2023-02-15T06:31:39.085Z,8.40
2023-02-15T06:34:05.732Z,8.35
2023-02-15T06:36:32.887Z,8.52
2023-02-15T06:38:59.385Z,8.73
2023-02-15T06:41:26.007Z,8.18
2023-02-15T06:43:52.692Z,8.10
2023-02-15T06:46:19.296Z,8.90
2023-02-15T06:48:46.097Z,8.40
2023-02-15T06:51:12.659Z,8.82
2023-02-15T06:53:39.220Z,8.93
2023-02-15T06:56:09.913Z,9.37
2023-02-15T06:58:40.920Z,9.30
2023-02-15T07:01:08.281Z,8.70
2023-02-15T07:03:35.434Z,9.27
2023-02-15T07:06:04.469Z,8.57
2023-02-15T07:08:31.106Z,9.30
2023-02-15T07:11:17.599Z,7.72
2023-02-15T07:13:44.165Z,9.07
2023-02-15T07:16:11.330Z,9.00
2023-02-15T07:18:38.265Z,8.95
2023-02-15T07:21:05.273Z,8.53
2023-02-15T07:23:31.833Z,8.80
2023-02-15T07:25:59.925Z,8.68
2023-02-15T07:28:26.793Z,8.88
2023-02-15T07:30:53.506Z,8.90
2023-02-15T07:33:27.929Z,8.67
2023-02-15T07:35:58.735Z,8.27
2023-02-15T07:38:27.134Z,7.93
2023-02-15T07:40:59.091Z,9.00
2023-02-15T07:43:25.795Z,8.80
2023-02-15T07:45:52.296Z,9.60
2023-02-15T07:48:19.046Z,9.13
2023-02-15T07:50:45.559Z,9.88
2023-02-15T07:53:12.263Z,9.63
2023-02-15T07:55:38.879Z,9.38
2023-02-15T07:58:05.543Z,9.57
2023-02-15T08:00:52.052Z,9.30
2023-02-15T08:03:18.627Z,8.68
2023-02-15T08:05:46.252Z,9.55
2023-02-15T08:08:30.927Z,9.20
2023-02-15T08:11:23.912Z,8.67
2023-02-15T08:14:03.379Z,8.60
2023-02-15T08:16:37.860Z,8.80
2023-02-15T08:19:12.764Z,8.95
2023-02-15T08:21:41.789Z,9.23
2023-02-15T08:24:09.789Z,9.10
2023-02-15T08:26:37.564Z,9.88
2023-02-15T08:29:04.433Z,10.48
2023-02-15T08:31:31.123Z,10.43
2023-02-15T08:33:58.352Z,10.88
2023-02-15T08:36:28.032Z,10.53
2023-02-15T08:38:54.546Z,10.68
2023-02-15T08:41:32.684Z,11.10
2023-02-15T08:44:02.625Z,10.93
2023-02-15T08:46:31.657Z,11.32
2023-02-15T08:48:59.551Z,10.50
2023-02-15T08:51:31.634Z,11.05
2023-02-15T08:54:00.502Z,11.02
2023-02-15T08:56:29.204Z,11.07
2023-02-15T08:58:57.178Z,12.23
2023-02-15T09:01:26.823Z,11.43
2023-02-15T09:03:58.865Z,12.05
2023-02-15T09:06:26.093Z,11.38
2023-02-15T09:08:53.871Z,11.73
2023-02-15T09:11:29.111Z,12.38
2023-02-15T09:13:58.452Z,13.50
2023-02-15T09:16:26.964Z,12.73
2023-02-15T09:18:54.718Z,13.55
2023-02-15T09:21:23.597Z,13.05
2023-02-15T09:23:52.125Z,13.27
2023-02-15T09:26:23.136Z,12.93
2023-02-15T09:28:53.446Z,14.10
2023-02-15T09:31:22.368Z,14.13
2023-02-15T09:33:49.817Z,13.02
2023-02-15T09:36:21.003Z,13.52
2023-02-15T09:38:48.311Z,13.63
2023-02-15T09:41:39.228Z,12.82
2023-02-15T09:44:17.714Z,14.23
2023-02-15T09:46:50.330Z,13.48
2023-02-15T09:49:19.534Z,13.75
2023-02-15T09:51:55.638Z,13.37
2023-02-15T09:54:37.478Z,14.77
2023-02-15T09:57:19.966Z,14.23
2023-02-15T10:00:11.403Z,13.25
2023-02-15T10:02:56.140Z,13.90
2023-02-15T10:05:49.651Z,13.77
2023-02-15T10:08:25.127Z,14.07
2023-02-15T10:11:29.403Z,13.80
2023-02-15T10:14:05.138Z,14.27
2023-02-15T10:17:04.916Z,14.95
2023-02-15T10:19:53.883Z,12.97
2023-02-15T10:22:37.935Z,13.63
2023-02-15T10:25:19.388Z,15.07
2023-02-15T10:27:49.393Z,14.50
2023-02-15T10:30:34.912Z,14.05
2023-02-15T10:33:04.214Z,14.40
2023-02-15T10:35:54.118Z,14.02
2023-02-15T10:38:20.554Z,14.55
2023-02-15T10:41:00.847Z,14.65
2023-02-15T10:43:33.481Z,14.60
2023-02-15T10:46:37.236Z,14.10
2023-02-15T10:49:09.855Z,15.00
2023-02-15T10:52:14.748Z,14.35
2023-02-15T10:54:41.391Z,13.98
2023-02-15T10:57:28.681Z,13.57
2023-02-15T11:00:30.240Z,13.13
2023-02-15T11:02:59.766Z,14.38
2023-02-15T11:05:35.092Z,13.35
2023-02-15T11:08:07.180Z,13.13
2023-02-15T11:10:40.038Z,14.05
2023-02-15T11:13:12.523Z,13.03
2023-02-15T11:16:18.658Z,14.30
2023-02-15T11:18:55.507Z,14.15
2023-02-15T11:21:27.247Z,13.73
2023-02-15T11:23:55.012Z,13.60
2023-02-15T11:26:43.785Z,14.60
2023-02-15T11:29:49.497Z,14.95
2023-02-15T11:32:36.187Z,14.38
2023-02-15T11:35:06.364Z,14.20
2023-02-15T11:37:47.165Z,13.73
2023-02-15T11:40:18.137Z,14.00
2023-02-15T11:42:46.293Z,14.38
2023-02-15T11:45:23.690Z,14.35
2023-02-15T11:47:50.563Z,14.50
2023-02-15T11:50:23.330Z,13.50
2023-02-15T11:52:57.625Z,15.10
2023-02-15T11:55:27.384Z,14.45
2023-02-15T11:58:15.609Z,14.55
2023-02-15T12:00:46.792Z,14.18
2023-02-15T12:03:50.177Z,14.38
2023-02-15T12:06:29.669Z,14.17
2023-02-15T12:09:03.603Z,14.00
2023-02-15T12:11:37.182Z,15.43
2023-02-15T12:14:06.844Z,15.07
2023-02-15T12:16:45.649Z,14.40
2023-02-15T12:19:19.296Z,14.73
2023-02-15T12:21:50.382Z,15.10
2023-02-15T12:24:27.315Z,14.23
2023-02-15T12:27:02.666Z,15.65
2023-02-15T12:29:35.483Z,15.43
2023-02-15T12:32:02.864Z,15.50
2023-02-15T12:34:40.780Z,15.30
2023-02-15T12:37:17.772Z,15.57
2023-02-15T12:40:21.119Z,15.55
2023-02-15T12:42:47.713Z,15.40
2023-02-15T12:45:22.137Z,15.30
2023-02-15T12:48:08.813Z,14.80
2023-02-15T12:50:35.771Z,14.40
2023-02-15T12:53:15.215Z,15.13
2023-02-15T12:56:01.820Z,15.38
2023-02-15T12:58:32.905Z,15.43
2023-02-15T13:01:25.396Z,16.02
2023-02-15T13:04:02.835Z,15.55
2023-02-15T13:06:33.934Z,16.02
2023-02-15T13:09:15.243Z,15.35
2023-02-15T13:11:44.515Z,15.00
2023-02-15T13:14:25.488Z,15.32
2023-02-15T13:16:54.197Z,15.82
2023-02-15T13:19:30.407Z,17.35
2023-02-15T13:21:58.453Z,16.63
2023-02-15T13:24:26.462Z,16.10
2023-02-15T13:27:13.136Z,16.55
2023-02-15T13:29:45.636Z,15.07
2023-02-15T13:32:18.804Z,16.02
2023-02-15T13:34:45.308Z,15.20
2023-02-15T13:37:26.369Z,15.50
2023-02-15T13:40:05.277Z,15.43
2023-02-15T13:42:38.269Z,15.93
2023-02-15T13:45:24.436Z,15.75
2023-02-15T13:48:00.985Z,16.30
2023-02-15T13:51:02.416Z,17.13
2023-02-15T13:53:51.807Z,15.85
2023-02-15T13:56:33.704Z,15.38
2023-02-15T13:59:11.039Z,16.45
2023-02-15T14:01:50.764Z,15.73
2023-02-15T14:04:46.665Z,15.77
2023-02-15T14:07:46.761Z,16.08
2023-02-15T14:10:34.943Z,16.10
2023-02-15T14:13:20.283Z,15.38
2023-02-15T14:16:01.621Z,16.17
2023-02-15T14:19:16.132Z,15.63
2023-02-15T14:21:54.451Z,15.68
2023-02-15T14:24:35.902Z,15.82
2023-02-15T14:27:14.890Z,15.13
2023-02-15T14:29:57.083Z,16.02
2023-02-15T14:32:41.811Z,14.37
2023-02-15T14:35:17.739Z,15.48
2023-02-15T14:37:50.241Z,16.40
2023-02-15T14:41:02.307Z,15.77
2023-02-15T14:44:08.325Z,15.27
2023-02-15T14:46:43.356Z,16.10
2023-02-15T14:49:22.458Z,16.92
2023-02-15T14:51:49.022Z,16.58
2023-02-15T14:54:18.331Z,16.98
2023-02-15T14:56:46.121Z,17.17
2023-02-15T14:59:12.600Z,16.90
2023-02-15T15:01:40.385Z,17.05
2023-02-15T15:04:14.505Z,17.13
2023-02-15T15:06:45.055Z,17.27
2023-02-15T15:09:22.855Z,17.20
2023-02-15T15:11:51.718Z,16.23
2023-02-15T15:14:39.525Z,15.45
2023-02-15T15:17:07.923Z,15.63
2023-02-15T15:19:53.700Z,16.15
2023-02-15T15:22:25.579Z,16.02
2023-02-15T15:25:03.308Z,15.47
2023-02-15T15:27:51.427Z,15.00
2023-02-15T15:30:23.796Z,15.93
2023-02-15T15:32:56.940Z,16.17
2023-02-15T15:35:53.772Z,15.68
2023-02-15T15:38:45.452Z,15.50
2023-02-15T15:41:33.124Z,16.15
2023-02-15T15:44:36.860Z,15.93
2023-02-15T15:47:22.282Z,15.35
2023-02-15T15:49:48.976Z,15.18
2023-02-15T15:52:18.228Z,15.20
2023-02-15T15:54:47.377Z,15.15
2023-02-15T15:57:29.577Z,16.63
2023-02-15T15:59:59.594Z,17.00
2023-02-15T16:02:26.601Z,15.55
2023-02-15T16:04:53.189Z,16.13
2023-02-15T16:07:19.603Z,16.73
2023-02-15T16:10:00.356Z,16.60
2023-02-15T16:12:29.617Z,18.33
2023-02-15T16:14:57.718Z,16.27
2023-02-15T16:17:27.964Z,15.70
2023-02-15T16:20:03.774Z,15.90
2023-02-15T16:22:30.347Z,16.80
2023-02-15T16:25:18.329Z,16.15
2023-02-15T16:27:46.474Z,16.35
2023-02-15T16:30:28.739Z,15.27
2023-02-15T16:33:04.927Z,16.33
2023-02-15T16:35:31.857Z,16.23
2023-02-15T16:37:58.428Z,15.95
2023-02-15T16:40:24.872Z,16.27
2023-02-15T16:43:04.801Z,15.83
2023-02-15T16:45:33.417Z,16.58
2023-02-15T16:48:02.814Z,17.13
2023-02-15T16:50:35.476Z,18.08
2023-02-15T16:53:04.862Z,18.83
2023-02-15T16:55:43.205Z,18.73
2023-02-15T16:58:16.636Z,17.60
2023-02-15T17:00:43.607Z,19.85
2023-02-15T17:03:13.040Z,21.98
2023-02-15T17:05:52.415Z,19.55
2023-02-15T17:08:25.360Z,19.60
2023-02-15T17:11:01.007Z,19.17
2023-02-15T17:13:28.632Z,21.33
2023-02-15T17:16:01.335Z,17.38
2023-02-15T17:18:32.345Z,17.00
2023-02-15T17:21:02.611Z,16.93
2023-02-15T17:23:36.785Z,16.92
2023-02-15T17:26:19.737Z,17.48
2023-02-15T17:28:54.884Z,17.20
2023-02-15T17:31:24.916Z,17.15
2023-02-15T17:33:55.319Z,16.73
2023-02-15T17:36:24.436Z,22.67
2023-02-15T17:39:21.276Z,23.65
2023-02-15T17:41:48.466Z,19.02
2023-02-15T17:44:16.631Z,19.67
2023-02-15T17:46:44.364Z,19.47
2023-02-15T17:49:23.951Z,21.90
2023-02-15T17:51:50.648Z,20.05
2023-02-15T17:54:35.469Z,19.13
2023-02-15T17:57:05.674Z,18.90
2023-02-15T17:59:32.388Z,18.30
2023-02-15T18:02:17.371Z,19.88
2023-02-15T18:05:02.484Z,17.75
2023-02-15T18:07:47.471Z,20.50
2023-02-15T18:10:34.794Z,20.90
2023-02-15T18:13:01.356Z,19.83
2023-02-15T18:15:28.373Z,20.48
2023-02-15T18:17:55.478Z,27.52
2023-02-15T18:20:29.074Z,27.20
2023-02-15T18:22:55.751Z,28.83
2023-02-15T18:25:25.533Z,26.47
2023-02-15T18:27:54.893Z,26.85
2023-02-15T18:30:24.137Z,25.02
2023-02-15T18:32:53.176Z,22.27
2023-02-15T18:35:22.786Z,19.40
2023-02-15T18:37:50.503Z,19.47
2023-02-15T18:40:19.243Z,17.73
2023-02-15T18:42:48.220Z,19.98
2023-02-15T18:45:21.094Z,18.42
2023-02-15T18:47:48.786Z,19.13
2023-02-15T18:50:17.726Z,18.67
2023-02-15T18:52:47.436Z,17.85
2023-02-15T18:55:22.660Z,18.70
2023-02-15T18:57:51.719Z,16.27
2023-02-15T19:00:21.941Z,20.20
2023-02-15T19:02:48.914Z,20.77
2023-02-15T19:05:17.929Z,19.35
2023-02-15T19:07:50.817Z,19.15
2023-02-15T19:10:26.354Z,19.20
2023-02-15T19:12:53.080Z,18.83
2023-02-15T19:15:28.127Z,19.13
2023-02-15T19:17:55.096Z,18.05
2023-02-15T19:20:29.723Z,18.35
2023-02-15T19:22:58.282Z,16.70
2023-02-15T19:25:30.568Z,17.88
2023-02-15T19:27:58.248Z,16.37
2023-02-15T19:30:29.438Z,16.33
2023-02-15T19:32:57.308Z,15.80
2023-02-15T19:35:27.278Z,17.50
2023-02-15T19:37:57.357Z,20.65
2023-02-15T19:40:33.481Z,17.03
2023-02-15T19:43:00.410Z,17.00
2023-02-15T19:45:29.786Z,17.70
2023-02-15T19:47:56.900Z,16.88
2023-02-15T19:50:30.451Z,16.60
2023-02-15T19:52:57.665Z,17.37
2023-02-15T19:55:28.154Z,17.90
2023-02-15T19:57:56.374Z,17.20
2023-02-15T20:00:26.095Z,16.45
2023-02-15T20:02:53.651Z,16.83
2023-02-15T20:05:20.758Z,16.43
2023-02-15T20:07:49.676Z,17.25
2023-02-15T20:10:22.251Z,19.15
2023-02-15T20:12:49.956Z,20.02
2023-02-15T20:15:24.048Z,17.50
2023-02-15T20:17:51.485Z,17.03
2023-02-15T20:20:21.169Z,17.30
2023-02-15T20:22:50.448Z,18.67
2023-02-15T20:25:25.643Z,17.50
2023-02-15T20:27:52.284Z,17.85
2023-02-15T20:30:26.107Z,17.60
2023-02-15T20:32:52.674Z,17.85
2023-02-15T20:35:22.627Z,16.83
2023-02-15T20:37:52.527Z,17.63
2023-02-15T20:40:20.949Z,17.98
2023-02-15T20:42:47.950Z,16.73
2023-02-15T20:45:28.711Z,17.83
2023-02-15T20:47:56.125Z,18.05
2023-02-15T20:50:33.330Z,18.10
2023-02-15T20:53:02.779Z,17.40
2023-02-15T20:55:31.183Z,17.10
2023-02-15T20:57:59.157Z,17.80
2023-02-15T21:00:31.844Z,17.88
2023-02-15T21:03:01.185Z,17.10
2023-02-15T21:05:35.283Z,18.25
2023-02-15T21:08:02.338Z,16.97
2023-02-15T21:10:31.874Z,19.23
2023-02-15T21:13:01.144Z,17.95
2023-02-15T21:15:36.813Z,16.52
2023-02-15T21:18:06.533Z,19.00
2023-02-15T21:20:35.138Z,18.83
2023-02-15T21:23:04.897Z,20.50
2023-02-15T21:25:37.020Z,18.63
2023-02-15T21:28:05.232Z,17.00
2023-02-15T21:30:31.901Z,19.23
2023-02-15T21:32:58.413Z,17.50
2023-02-15T21:35:25.081Z,18.95
2023-02-15T21:37:53.207Z,18.33
2023-02-15T21:40:29.487Z,18.42
2023-02-15T21:43:14.444Z,17.38
2023-02-15T21:45:59.407Z,16.67
2023-02-15T21:48:25.928Z,16.60
2023-02-15T21:51:11.465Z,16.50
2023-02-15T21:53:43.458Z,16.85
2023-02-15T21:56:15.766Z,15.68
2023-02-15T21:58:42.633Z,16.97
2023-02-15T22:01:28.471Z,17.98
2023-02-15T22:03:57.824Z,16.83
2023-02-15T22:06:24.564Z,17.02
2023-02-15T22:08:51.110Z,18.17
2023-02-15T22:11:22.484Z,17.10
2023-02-15T22:13:49.464Z,17.30
2023-02-15T22:16:18.545Z,17.27
2023-02-15T22:18:45.960Z,16.63
2023-02-15T22:21:12.997Z,17.27
2023-02-15T22:23:39.443Z,16.63
2023-02-15T22:26:11.611Z,17.08
2023-02-15T22:28:39.930Z,16.92
2023-02-15T22:31:12.811Z,16.85
2023-02-15T22:33:39.998Z,17.85
2023-02-15T22:36:06.940Z,17.37
2023-02-15T22:38:33.482Z,17.70
2023-02-15T22:41:04.419Z,16.60
2023-02-15T22:43:42.113Z,17.27
2023-02-15T22:46:16.330Z,16.75
2023-02-15T22:48:44.400Z,15.67
2023-02-15T22:51:20.077Z,16.98
2023-02-15T22:53:49.569Z,17.55
2023-02-15T22:56:20.403Z,16.95
2023-02-15T22:58:49.565Z,16.42
2023-02-15T23:01:31.681Z,16.53
2023-02-15T23:03:59.456Z,16.73
2023-02-15T23:06:27.431Z,16.70
2023-02-15T23:08:53.891Z,17.02
2023-02-15T23:11:20.672Z,16.67
2023-02-15T23:13:48.784Z,16.20
2023-02-15T23:16:16.878Z,17.67
2023-02-15T23:18:45.923Z,18.27
2023-02-15T23:21:15.393Z,16.67
2023-02-15T23:23:46.707Z,17.70
2023-02-15T23:26:19.073Z,17.87
2023-02-15T23:28:46.307Z,17.45
2023-02-15T23:31:18.680Z,17.65
2023-02-15T23:33:46.318Z,17.13
2023-02-15T23:36:24.323Z,18.05
2023-02-15T23:38:51.157Z,17.33
2023-02-15T23:41:22.959Z,17.02
2023-02-15T23:43:56.837Z,18.50
2023-02-15T23:46:25.220Z,17.90
2023-02-15T23:48:53.030Z,16.58
2023-02-15T23:51:21.933Z,17.60
2023-02-15T23:53:48.498Z,17.75
2023-02-15T23:56:15.409Z,17.98
2023-02-15T23:58:43.862Z,18.02
